createdAt,value
2019-03-25T00:02:18.310Z,100044.44
2019-03-25T00:04:44.784Z,100037.47
2019-03-25T00:07:11.465Z,100034.70
2019-03-25T00:09:37.793Z,100028.10
2019-03-25T00:12:04.212Z,100027.20
2019-03-25T00:14:31.029Z,100034.42
2019-03-25T00:16:57.671Z,100030.98
2019-03-25T00:19:24.416Z,100023.66
2019-03-25T00:21:50.745Z,100022.69
2019-03-25T00:24:17.076Z,100025.80
2019-03-25T00:26:43.434Z,100024.21
2019-03-25T00:29:10.078Z,100015.91
2019-03-25T00:31:36.433Z,100007.47
2019-03-25T00:34:03.255Z,100010.05
2019-03-25T00:36:29.591Z,100009.82
2019-03-25T00:38:55.930Z,100008.37
2019-03-25T00:41:22.672Z,100003.48
2019-03-25T00:43:49.084Z,100000.23
2019-03-25T00:46:15.414Z,100003.36
2019-03-25T00:48:41.741Z,99998.45
2019-03-25T00:51:08.056Z,99988.55
2019-03-25T00:53:34.385Z,99996.42
2019-03-25T00:56:00.744Z,99994.13
2019-03-25T00:58:27.069Z,99992.70
2019-03-25T01:00:53.393Z,99989.94
2019-03-25T01:03:19.720Z,99982.81
2019-03-25T01:05:46.603Z,99980.59
2019-03-25T01:08:12.960Z,99981.61
2019-03-25T01:10:40.113Z,99976.69
2019-03-25T01:13:06.784Z,99973.42
2019-03-25T01:15:33.432Z,99977.63
2019-03-25T01:18:00.251Z,99974.34
2019-03-25T01:20:26.652Z,99965.52
2019-03-25T01:22:53.426Z,99957.31
2019-03-25T01:25:19.974Z,99953.31
2019-03-25T01:27:46.600Z,99953.89
2019-03-25T01:30:13.547Z,99949.76
2019-03-25T01:32:40.184Z,99956.53
2019-03-25T01:35:06.887Z,99949.38
2019-03-25T01:37:33.589Z,99952.38
2019-03-25T01:39:59.938Z,99948.53
2019-03-25T01:42:26.271Z,99938.95
2019-03-25T01:44:52.971Z,99944.92
2019-03-25T01:47:19.618Z,99942.88
2019-03-25T01:49:46.361Z,99936.62
2019-03-25T01:52:12.794Z,99935.23
2019-03-25T01:54:39.141Z,99941.20
2019-03-25T01:57:05.790Z,99932.06
2019-03-25T01:59:32.146Z,99927.52
2019-03-25T02:01:58.522Z,99928.66
2019-03-25T02:04:25.165Z,99920.55
2019-03-25T02:06:52.153Z,99917.55
2019-03-25T02:09:18.537Z,99909.64
2019-03-25T02:11:44.877Z,99909.01
2019-03-25T02:14:11.283Z,99903.96
2019-03-25T02:16:37.664Z,99892.80
2019-03-25T02:19:04.407Z,99884.23
2019-03-25T02:21:30.721Z,99887.50
2019-03-25T02:23:58.142Z,99887.77
2019-03-25T02:26:24.451Z,99885.23
2019-03-25T02:28:50.757Z,99875.92
2019-03-25T02:31:17.083Z,99872.45
2019-03-25T02:33:43.404Z,99872.74
2019-03-25T02:36:09.749Z,99864.89
2019-03-25T02:38:36.069Z,99856.87
2019-03-25T02:41:02.490Z,99850.83
2019-03-25T02:43:28.821Z,99846.05
2019-03-25T02:45:55.213Z,99840.56
2019-03-25T02:48:21.910Z,99843.02
2019-03-25T02:50:48.274Z,99842.18
2019-03-25T02:53:14.618Z,99830.93
2019-03-25T02:55:42.814Z,99841.45
2019-03-25T02:58:09.283Z,99841.72
2019-03-25T03:00:37.470Z,99842.34
2019-03-25T03:03:05.781Z,99829.22
2019-03-25T03:05:32.108Z,99826.16
2019-03-25T03:07:58.410Z,99827.16
2019-03-25T03:10:25.139Z,99819.89
2019-03-25T03:12:51.470Z,99822.95
2019-03-25T03:15:18.200Z,99811.78
2019-03-25T03:17:44.575Z,99812.63
2019-03-25T03:20:10.920Z,99810.48
2019-03-25T03:22:37.272Z,99804.17
2019-03-25T03:25:03.921Z,99799.09
2019-03-25T03:27:30.578Z,99799.50
2019-03-25T03:29:57.215Z,99789.03
2019-03-25T03:32:23.858Z,99790.91
2019-03-25T03:34:50.471Z,99780.58
2019-03-25T03:37:16.930Z,99784.78
2019-03-25T03:39:43.272Z,99783.23
2019-03-25T03:42:09.886Z,99768.26
2019-03-25T03:44:36.407Z,99772.19
2019-03-25T03:47:02.773Z,99775.25
2019-03-25T03:49:29.119Z,99774.63
2019-03-25T03:51:56.336Z,99771.89
2019-03-25T03:54:22.650Z,99766.73
2019-03-25T03:56:50.340Z,99768.94
2019-03-25T03:59:16.854Z,99766.55
2019-03-25T04:01:43.205Z,99770.42
2019-03-25T04:04:09.523Z,99762.74
2019-03-25T04:06:36.275Z,99754.94
2019-03-25T04:09:04.496Z,99748.66
2019-03-25T04:11:30.914Z,99747.98
2019-03-25T04:13:57.535Z,99742.52
2019-03-25T04:16:23.899Z,99740.74
2019-03-25T04:18:50.249Z,99744.45
2019-03-25T04:21:16.719Z,99732.11
2019-03-25T04:23:46.298Z,99727.00
2019-03-25T04:26:27.226Z,99724.52
2019-03-25T04:28:39.905Z,99727.01
2019-03-25T04:31:06.240Z,99728.41
2019-03-25T04:33:32.610Z,99730.38
2019-03-25T04:35:58.965Z,99725.34
2019-03-25T04:38:25.299Z,99733.35
2019-03-25T04:40:51.636Z,99731.47
2019-03-25T04:43:18.004Z,99721.44
2019-03-25T04:45:44.440Z,99728.32
2019-03-25T04:48:10.767Z,99727.86
2019-03-25T04:50:37.611Z,99726.44
2019-03-25T04:53:04.248Z,99722.66
2019-03-25T04:55:30.572Z,99718.75
2019-03-25T04:57:57.214Z,99720.69
2019-03-25T05:00:35.628Z,99718.37
2019-03-25T05:03:02.552Z,99707.12
2019-03-25T05:05:29.219Z,99705.27
2019-03-25T05:07:55.958Z,99713.08
2019-03-25T05:10:22.727Z,99703.58
2019-03-25T05:12:49.146Z,99709.36
2019-03-25T05:15:15.503Z,99707.12
2019-03-25T05:17:41.840Z,99704.70
2019-03-25T05:20:08.580Z,99704.25
2019-03-25T05:22:34.957Z,99693.08
2019-03-25T05:25:01.669Z,99683.96
2019-03-25T05:27:27.995Z,99686.86
2019-03-25T05:29:54.399Z,99676.83
2019-03-25T05:32:20.837Z,99661.11
2019-03-25T05:34:47.428Z,99658.61
2019-03-25T05:37:14.103Z,99653.75
2019-03-25T05:39:40.710Z,99641.23
2019-03-25T05:42:07.083Z,99646.31
2019-03-25T05:44:33.441Z,99636.66
2019-03-25T05:46:59.799Z,99633.84
2019-03-25T05:49:26.447Z,99636.98
2019-03-25T05:51:53.086Z,99638.50
2019-03-25T05:54:19.415Z,99637.64
2019-03-25T05:56:46.373Z,99630.18
2019-03-25T05:59:12.700Z,99631.03
2019-03-25T06:01:39.008Z,99620.01
2019-03-25T06:04:05.655Z,99618.58
2019-03-25T06:06:32.501Z,99612.00
2019-03-25T06:08:58.857Z,99601.90
2019-03-25T06:11:25.214Z,99594.53
2019-03-25T06:13:51.535Z,99596.67
2019-03-25T06:16:18.517Z,99579.55
2019-03-25T06:18:44.907Z,99580.31
2019-03-25T06:21:11.377Z,99587.05
2019-03-25T06:23:38.416Z,99573.14
2019-03-25T06:26:05.229Z,99582.33
2019-03-25T06:28:31.832Z,99579.27
2019-03-25T06:30:58.399Z,99572.33
2019-03-25T06:33:24.769Z,99573.50
2019-03-25T06:35:51.103Z,99567.86
2019-03-25T06:38:17.784Z,99555.95
2019-03-25T06:40:44.128Z,99568.02
2019-03-25T06:43:10.495Z,99564.23
2019-03-25T06:45:36.930Z,99577.38
2019-03-25T06:48:03.632Z,99587.17
2019-03-25T06:50:30.041Z,99575.83
2019-03-25T06:52:56.415Z,99587.33
2019-03-25T06:55:22.875Z,99587.20
2019-03-25T06:57:49.496Z,99584.84
2019-03-25T07:00:16.707Z,99592.66
2019-03-25T07:02:43.811Z,99609.33
2019-03-25T07:05:11.765Z,99592.47
2019-03-25T07:07:38.103Z,99601.59
2019-03-25T07:10:06.616Z,99590.20
2019-03-25T07:12:33.017Z,99587.25
2019-03-25T07:14:59.828Z,99591.67
2019-03-25T07:17:26.173Z,99582.92
2019-03-25T07:19:52.527Z,99575.73
2019-03-25T07:22:19.357Z,99568.63
2019-03-25T07:24:45.764Z,99577.50
2019-03-25T07:27:12.402Z,99591.44
2019-03-25T07:29:39.136Z,99563.34
2019-03-25T07:32:05.519Z,99573.03
2019-03-25T07:34:32.116Z,99574.69
2019-03-25T07:36:58.956Z,99581.61
2019-03-25T07:39:25.282Z,99582.13
2019-03-25T07:41:51.653Z,99598.13
2019-03-25T07:44:18.089Z,99569.44
2019-03-25T07:46:44.492Z,99579.99
2019-03-25T07:49:11.236Z,99575.07
2019-03-25T07:51:37.659Z,99571.38
2019-03-25T07:54:04.002Z,99569.11
2019-03-25T07:56:30.378Z,99570.66
2019-03-25T07:58:57.177Z,99570.03
2019-03-25T08:01:23.902Z,99565.47
2019-03-25T08:03:50.275Z,99561.19
2019-03-25T08:06:16.714Z,99564.07
2019-03-25T08:08:43.035Z,99550.16
2019-03-25T08:11:09.408Z,99562.56
2019-03-25T08:13:35.701Z,99567.56
2019-03-25T08:16:03.454Z,99584.41
2019-03-25T08:18:30.259Z,99560.87
2019-03-25T08:20:57.001Z,99555.33
2019-03-25T08:23:23.380Z,99560.73
2019-03-25T08:25:49.674Z,99569.78
2019-03-25T08:28:16.031Z,99628.66
2019-03-25T08:30:42.366Z,99595.69
2019-03-25T08:33:08.705Z,99591.14
2019-03-25T08:35:35.021Z,99603.17
2019-03-25T08:38:01.356Z,99597.70
2019-03-25T08:40:27.833Z,99595.80
2019-03-25T08:42:54.227Z,99588.47
2019-03-25T08:45:20.592Z,99603.16
2019-03-25T08:47:46.940Z,99595.19
2019-03-25T08:50:13.296Z,99600.38
2019-03-25T08:52:40.061Z,99604.01
2019-03-25T08:55:06.752Z,99608.09
2019-03-25T08:57:33.142Z,99609.77
2019-03-25T08:59:59.872Z,99620.86
2019-03-25T09:02:26.246Z,99613.93
2019-03-25T09:04:52.685Z,99625.64
2019-03-25T09:07:19.354Z,99612.13
2019-03-25T09:09:45.836Z,99623.16
2019-03-25T09:12:12.188Z,99605.56
2019-03-25T09:14:38.564Z,99627.61
2019-03-25T09:17:05.442Z,99629.83
2019-03-25T09:19:31.843Z,99632.23
2019-03-25T09:21:58.306Z,99631.94
2019-03-25T09:24:24.930Z,99638.31
2019-03-25T09:26:51.288Z,99641.72
2019-03-25T09:29:17.642Z,99634.09
2019-03-25T09:31:44.000Z,99631.50
2019-03-25T09:34:11.934Z,99639.71
2019-03-25T09:36:38.632Z,99626.30
2019-03-25T09:39:07.271Z,99642.25
2019-03-25T09:41:33.944Z,99648.09
2019-03-25T09:44:00.277Z,99647.53
2019-03-25T09:46:26.986Z,99663.67
2019-03-25T09:48:53.427Z,99662.39
2019-03-25T09:51:20.163Z,99660.73
2019-03-25T09:53:47.562Z,99659.19
2019-03-25T09:56:13.911Z,99668.64
2019-03-25T09:58:40.610Z,99673.83
2019-03-25T10:01:07.065Z,99668.47
2019-03-25T10:03:33.897Z,99652.81
2019-03-25T10:06:00.344Z,99657.36
2019-03-25T10:08:27.140Z,99657.85
2019-03-25T10:10:53.504Z,99648.64
2019-03-25T10:13:20.008Z,99660.89
2019-03-25T10:15:47.494Z,99648.39
2019-03-25T10:18:14.272Z,99658.30
2019-03-25T10:20:40.727Z,99634.62
2019-03-25T10:23:07.344Z,99636.23
2019-03-25T10:25:34.447Z,99634.61
2019-03-25T10:28:00.929Z,99603.41
2019-03-25T10:30:27.606Z,99592.51
2019-03-25T10:32:53.998Z,99653.13
2019-03-25T10:35:20.778Z,99686.57
2019-03-25T10:37:47.234Z,99678.34
2019-03-25T10:40:14.289Z,99681.13
2019-03-25T10:42:41.715Z,99657.92
2019-03-25T10:45:09.728Z,99657.27
2019-03-25T10:47:36.264Z,99652.81
2019-03-25T10:50:04.188Z,99634.12
2019-03-25T10:52:30.660Z,99642.58
2019-03-25T10:57:23.441Z,99637.45
2019-03-25T10:59:50.078Z,99641.02
2019-03-25T11:02:16.422Z,99631.28
2019-03-25T11:04:43.434Z,99626.72
2019-03-25T11:07:11.119Z,99609.95
2019-03-25T11:09:37.763Z,99621.59
2019-03-25T11:12:04.415Z,99630.55
2019-03-25T11:14:30.821Z,99635.34
2019-03-25T11:16:57.546Z,99629.36
2019-03-25T11:19:23.935Z,99634.02
2019-03-25T11:21:50.623Z,99638.39
2019-03-25T11:24:17.341Z,99627.23
2019-03-25T11:26:44.129Z,99637.64
2019-03-25T11:29:10.845Z,99629.52
2019-03-25T11:31:37.582Z,99633.05
2019-03-25T11:34:04.001Z,99644.59
2019-03-25T11:36:30.356Z,99640.52
2019-03-25T11:38:56.688Z,99622.52
2019-03-25T11:41:23.404Z,99636.70
2019-03-25T11:43:50.203Z,99631.50
2019-03-25T11:46:16.887Z,99630.03
2019-03-25T11:48:43.260Z,99636.17
2019-03-25T11:51:09.926Z,99641.39
2019-03-25T11:53:36.450Z,99629.33
2019-03-25T11:56:03.573Z,99636.86
2019-03-25T11:58:30.405Z,99649.56
2019-03-25T12:00:56.724Z,99648.29
2019-03-25T12:03:24.214Z,99654.17
2019-03-25T12:05:50.968Z,99635.26
2019-03-25T12:08:18.778Z,99640.92
2019-03-25T12:10:45.164Z,99633.95
2019-03-25T12:13:11.874Z,99636.77
2019-03-25T12:15:38.236Z,99636.63
2019-03-25T12:18:04.636Z,99634.91
2019-03-25T12:20:31.484Z,99626.05
2019-03-25T12:22:57.784Z,99617.69
2019-03-25T12:25:24.209Z,99625.53
2019-03-25T12:27:50.880Z,99621.70
2019-03-25T12:30:17.506Z,99616.77
2019-03-25T12:32:43.820Z,99634.05
2019-03-25T12:35:10.282Z,99618.34
2019-03-25T12:37:36.625Z,99618.52
2019-03-25T12:40:07.629Z,99629.37
2019-03-25T12:42:33.315Z,99608.48
2019-03-25T12:44:59.993Z,99642.86
2019-03-25T12:47:27.698Z,99626.45
2019-03-25T12:49:55.288Z,99634.65
2019-03-25T12:52:22.067Z,99632.70
2019-03-25T12:54:49.776Z,99625.42
2019-03-25T12:57:16.455Z,99611.95
2019-03-25T12:59:43.199Z,99626.06
2019-03-25T13:02:09.865Z,99612.02
2019-03-25T13:04:36.573Z,99626.00
2019-03-25T13:07:03.346Z,99622.43
2019-03-25T13:09:29.761Z,99660.02
2019-03-25T13:11:56.198Z,99619.72
2019-03-25T13:14:22.582Z,99628.33
2019-03-25T13:16:49.021Z,99621.06
2019-03-25T13:19:15.355Z,99619.03
2019-03-25T13:21:41.716Z,99634.13
2019-03-25T13:24:08.382Z,99635.14
2019-03-25T13:27:05.331Z,99642.13
2019-03-25T13:30:52.140Z,99635.64
2019-03-25T13:34:42.542Z,99625.58
2019-03-25T13:37:32.623Z,99630.86
2019-03-25T13:40:41.658Z,99624.58
2019-03-25T13:43:35.153Z,99645.58
2019-03-25T13:46:05.792Z,99655.17
2019-03-25T13:48:32.824Z,99669.77
2019-03-25T13:50:59.593Z,99646.27
2019-03-25T13:53:26.036Z,99646.14
2019-03-25T13:55:52.832Z,99644.87
2019-03-25T13:58:19.275Z,99651.14
2019-03-25T14:00:46.050Z,99647.45
2019-03-25T14:03:12.408Z,99642.65
2019-03-25T14:05:40.092Z,99657.11
2019-03-25T14:08:06.442Z,99669.00
2019-03-25T14:10:33.184Z,99689.04
2019-03-25T14:12:59.768Z,99693.08
2019-03-25T14:15:27.266Z,99699.57
2019-03-25T14:17:53.612Z,99697.37
2019-03-25T14:20:20.055Z,99688.71
2019-03-25T14:22:47.489Z,99700.67
2019-03-25T14:25:13.843Z,99697.56
2019-03-25T14:27:40.631Z,99709.95
2019-03-25T14:30:14.314Z,99706.94
2019-03-25T14:32:36.922Z,99708.66
2019-03-25T14:35:06.385Z,99713.99
2019-03-25T14:37:33.461Z,99721.33
2019-03-25T14:39:59.838Z,99726.10
2019-03-25T14:42:26.173Z,99742.98
2019-03-25T14:44:52.618Z,99715.23
2019-03-25T14:47:20.479Z,99732.38
2019-03-25T14:49:46.826Z,99730.26
2019-03-25T14:52:13.489Z,99732.78
2019-03-25T14:54:40.225Z,99738.73
2019-03-25T14:57:06.787Z,99762.86
2019-03-25T14:59:33.180Z,99769.62
2019-03-25T15:01:59.525Z,99777.05
2019-03-25T15:04:27.318Z,99794.34
2019-03-25T15:06:53.717Z,99792.56
2019-03-25T15:09:20.088Z,99779.37
2019-03-25T15:11:46.740Z,99776.47
2019-03-25T15:14:13.041Z,99781.39
2019-03-25T15:16:39.386Z,99784.73
2019-03-25T15:19:05.741Z,99782.91
2019-03-25T15:21:33.280Z,99787.89
2019-03-25T15:23:59.643Z,99793.23
2019-03-25T15:26:26.320Z,99799.00
2019-03-25T15:28:53.081Z,99800.38
2019-03-25T15:31:19.431Z,99790.09
2019-03-25T15:33:46.789Z,99800.64
2019-03-25T15:36:13.520Z,99805.19
2019-03-25T15:38:40.139Z,99806.59
2019-03-25T15:41:06.542Z,99803.47
2019-03-25T15:43:32.903Z,99806.62
2019-03-25T15:45:59.778Z,99808.91
2019-03-25T15:48:26.136Z,99813.83
2019-03-25T15:50:52.570Z,99815.09
2019-03-25T15:53:19.890Z,99818.05
2019-03-25T15:55:48.208Z,99816.53
2019-03-25T15:58:21.707Z,99824.17
2019-03-25T16:00:48.142Z,99821.88
2019-03-25T16:03:11.315Z,99817.76
2019-03-25T16:05:45.209Z,99820.93
2019-03-25T16:08:13.926Z,99833.48
2019-03-25T16:10:40.696Z,99821.79
2019-03-25T16:13:09.393Z,99823.80
2019-03-25T16:15:41.064Z,99830.92
2019-03-25T16:18:08.400Z,99835.79
2019-03-25T16:20:35.013Z,99835.86
2019-03-25T16:23:01.387Z,99833.59
2019-03-25T16:25:28.279Z,99834.80
2019-03-25T16:27:54.718Z,99837.02
2019-03-25T16:30:21.355Z,99840.63
2019-03-25T16:32:47.990Z,99842.54
2019-03-25T16:35:14.665Z,99841.94
2019-03-25T16:37:41.496Z,99845.47
2019-03-25T16:40:14.192Z,99856.59
2019-03-25T16:42:40.596Z,99869.24
2019-03-25T16:45:07.535Z,99868.72
2019-03-25T16:47:33.904Z,99876.75
2019-03-25T16:50:00.374Z,99885.72
2019-03-25T16:52:26.856Z,99891.73
2019-03-25T16:54:53.760Z,99897.26
2019-03-25T16:57:20.512Z,99914.59
2019-03-25T16:59:46.878Z,99932.64
2019-03-25T17:02:13.262Z,99942.47
2019-03-25T17:04:39.608Z,99950.82
2019-03-25T17:07:08.080Z,99951.77
2019-03-25T17:09:34.983Z,99960.91
2019-03-25T17:12:01.824Z,99965.58
2019-03-25T17:14:30.693Z,99960.59
2019-03-25T17:16:57.145Z,99974.56
2019-03-25T17:19:26.966Z,99972.30
2019-03-25T17:21:58.073Z,99972.98
2019-03-25T17:24:21.652Z,99978.35
2019-03-25T17:26:47.980Z,99977.50
2019-03-25T17:29:14.325Z,99980.55
2019-03-25T17:31:40.659Z,99984.91
2019-03-25T17:34:07.276Z,99989.27
2019-03-25T17:36:33.903Z,99987.27
2019-03-25T17:39:00.319Z,99979.11
2019-03-25T17:41:27.003Z,99980.61
2019-03-25T17:43:53.859Z,99977.77
2019-03-25T17:46:20.575Z,99990.30
2019-03-25T17:48:47.164Z,99993.56
2019-03-25T17:51:15.080Z,100005.91
2019-03-25T17:53:41.812Z,100009.67
2019-03-25T17:56:08.541Z,100010.44
2019-03-25T17:58:35.183Z,100015.50
2019-03-25T18:01:05.207Z,100021.77
2019-03-25T18:03:31.953Z,100039.87
2019-03-25T18:05:59.421Z,100041.85
2019-03-25T18:08:25.828Z,100048.11
2019-03-25T18:10:52.706Z,100062.40
2019-03-25T18:13:22.568Z,100062.88
2019-03-25T18:15:47.711Z,100080.16
2019-03-25T18:18:14.446Z,100072.89
2019-03-25T18:20:41.171Z,100087.86
2019-03-25T18:23:07.826Z,100081.66
2019-03-25T18:25:34.166Z,100083.22
2019-03-25T18:28:01.024Z,100092.22
2019-03-25T18:30:32.449Z,100097.73
2019-03-25T18:32:59.084Z,100097.42
2019-03-25T18:35:26.473Z,100105.91
2019-03-25T18:37:52.948Z,100117.14
2019-03-25T18:40:19.316Z,100121.61
2019-03-25T18:42:45.993Z,100127.34
2019-03-25T18:45:12.892Z,100137.09
2019-03-25T18:47:39.380Z,100139.80
2019-03-25T18:50:06.519Z,100144.20
2019-03-25T18:52:33.074Z,100149.36
2019-03-25T18:55:00.443Z,100159.98
2019-03-25T18:57:27.055Z,100152.20
2019-03-25T18:59:53.432Z,100151.75
2019-03-25T19:02:20.355Z,100163.86
2019-03-25T19:04:46.888Z,100163.66
2019-03-25T19:07:13.808Z,100168.23
2019-03-25T19:09:40.489Z,100173.41
2019-03-25T19:12:06.831Z,100184.61
2019-03-25T19:14:33.349Z,100183.53
2019-03-25T19:17:00.007Z,100183.11
2019-03-25T19:19:26.657Z,100188.08
2019-03-25T19:21:53.509Z,100192.46
2019-03-25T19:24:20.375Z,100200.45
2019-03-25T19:26:47.466Z,100210.32
2019-03-25T19:29:14.009Z,100208.63
2019-03-25T19:31:41.113Z,100208.84
2019-03-25T19:34:08.136Z,100212.36
2019-03-25T19:36:34.564Z,100210.39
2019-03-25T19:39:00.980Z,100219.64
2019-03-25T19:41:32.567Z,100219.19
2019-03-25T19:43:58.075Z,100217.38
2019-03-25T19:46:27.366Z,100222.67
2019-03-25T19:48:53.702Z,100227.39
2019-03-25T19:51:21.106Z,100229.36
2019-03-25T19:53:47.536Z,100231.06
2019-03-25T19:56:13.923Z,100234.34
2019-03-25T19:58:40.802Z,100251.77
2019-03-25T20:01:07.606Z,100251.51
2019-03-25T20:03:34.752Z,100252.80
2019-03-25T20:06:01.087Z,100262.27
2019-03-25T20:08:27.728Z,100261.42
2019-03-25T20:10:54.768Z,100261.54
2019-03-25T20:13:21.138Z,100264.49
2019-03-25T20:15:48.068Z,100266.41
2019-03-25T20:18:14.538Z,100273.01
2019-03-25T20:20:40.941Z,100275.50
2019-03-25T20:23:07.534Z,100273.11
2019-03-25T20:25:35.051Z,100281.19
2019-03-25T20:28:01.942Z,100284.47
2019-03-25T20:30:28.427Z,100285.84
2019-03-25T20:32:54.781Z,100301.05
2019-03-25T20:35:21.492Z,100290.14
2019-03-25T20:37:48.827Z,100295.44
2019-03-25T20:40:15.810Z,100293.28
2019-03-25T20:42:43.796Z,100304.97
2019-03-25T20:45:11.765Z,100306.39
2019-03-25T20:47:38.430Z,100300.14
2019-03-25T20:50:08.097Z,100306.14
2019-03-25T20:52:34.492Z,100310.47
2019-03-25T20:55:00.897Z,100308.64
2019-03-25T20:57:27.304Z,100320.90
2019-03-25T20:59:53.729Z,100323.00
2019-03-25T21:02:20.292Z,100333.22
2019-03-25T21:04:46.842Z,100333.31
2019-03-25T21:07:15.863Z,100344.52
2019-03-25T21:09:43.859Z,100341.68
2019-03-25T21:12:10.297Z,100339.47
2019-03-25T21:14:36.605Z,100339.14
2019-03-25T21:17:03.054Z,100345.19
2019-03-25T21:19:29.883Z,100346.34
2019-03-25T21:21:56.229Z,100346.33
2019-03-25T21:24:22.615Z,100346.75
2019-03-25T21:26:48.973Z,100353.15
2019-03-25T21:29:15.477Z,100354.77
2019-03-25T21:31:42.000Z,100357.72
2019-03-25T21:34:09.666Z,100345.36
2019-03-25T21:36:36.839Z,100348.56
2019-03-25T21:39:06.975Z,100346.72
2019-03-25T21:41:33.787Z,100351.89
2019-03-25T21:44:01.787Z,100349.69
2019-03-25T21:46:28.901Z,100350.66
2019-03-25T21:48:55.446Z,100358.66
2019-03-25T21:51:21.877Z,100360.14
2019-03-25T21:53:48.705Z,100362.87
2019-03-25T21:56:15.477Z,100360.80
2019-03-25T21:58:42.000Z,100367.89
2019-03-25T22:01:08.649Z,100362.92
2019-03-25T22:03:35.154Z,100362.95
2019-03-25T22:06:01.830Z,100359.37
2019-03-25T22:08:28.172Z,100366.59
2019-03-25T22:10:54.892Z,100370.16
2019-03-25T22:13:21.745Z,100374.84
2019-03-25T22:15:48.114Z,100380.70
2019-03-25T22:18:14.451Z,100379.97
2019-03-25T22:20:40.843Z,100389.45
2019-03-25T22:23:07.234Z,100388.20
2019-03-25T22:25:33.905Z,100374.83
2019-03-25T22:28:00.280Z,100384.20
2019-03-25T22:30:26.984Z,100395.07
2019-03-25T22:32:53.726Z,100395.56
2019-03-25T22:35:20.091Z,100399.37
2019-03-25T22:37:46.428Z,100409.50
2019-03-25T22:40:13.321Z,100401.66
2019-03-25T22:42:39.671Z,100404.84
2019-03-25T22:45:07.513Z,100416.95
2019-03-25T22:47:34.963Z,100412.98
2019-03-25T22:50:02.720Z,100424.56
2019-03-25T22:52:29.391Z,100416.37
2019-03-25T22:54:56.223Z,100423.83
2019-03-25T22:57:22.580Z,100420.08
2019-03-25T22:59:49.186Z,100426.42
2019-03-25T23:02:15.564Z,100428.05
2019-03-25T23:04:41.955Z,100428.02
2019-03-25T23:07:08.302Z,100431.44
2019-03-25T23:09:35.028Z,100430.97
2019-03-25T23:12:03.918Z,100436.70
2019-03-25T23:14:30.276Z,100435.73
2019-03-25T23:16:56.655Z,100440.34
2019-03-25T23:19:23.018Z,100441.58
2019-03-25T23:21:49.669Z,100437.56
2019-03-25T23:24:16.012Z,100446.06
2019-03-25T23:26:42.362Z,100448.38
2019-03-25T23:29:09.063Z,100458.92
2019-03-25T23:31:35.436Z,100452.78
2019-03-25T23:34:01.787Z,100457.67
2019-03-25T23:36:28.298Z,100462.56
2019-03-25T23:38:54.611Z,100470.09
2019-03-25T23:41:20.996Z,100478.38
2019-03-25T23:43:49.194Z,100477.87
2019-03-25T23:46:15.935Z,100480.49
2019-03-25T23:48:42.681Z,100486.33
2019-03-25T23:51:09.416Z,100490.66
2019-03-25T23:53:35.770Z,100496.00
2019-03-25T23:56:02.111Z,100499.20
2019-03-25T23:58:36.422Z,100500.27
